Terminal Aerodrome Forecast
Issued by NWS

Home | Current Version | Previous Version | Text Only | Print | Product List | Glossary On
Versions: 1 2 3 4 5 6 7 8 9 10 11 12 13 14 15 16 17 18 19 20 21 22 23 24 25 26 27
000
FTUS43 KJKL 030303 AAE
TAFSJS
TAF AMD
KSJS 030303Z 0303/0324 00000KT 3/4SM BR VCSH OVC003
     FM030400 00000KT 3SM BR VCSH OVC007
     FM030900 00000KT 1SM BR VCSH OVC005
     FM031300 00000KT P6SM VCSH FEW005 BKN015
     FM031600 VRB04KT 5SM SHRA VCTS SCT015CB OVC030=

USA.gov is the U.S. government's official web portal to all federal, state and local government web resources and services.